sensor_id;sensor_type;location;lat;lon;timestamp;pressure;altitude;pressure_sealevel;temperature;humidity
8627;BME280;4351;51.422;6.794;2023-07-08T00:02:15;101532.34;;;21.51;100.00
8627;BME280;4351;51.422;6.794;2023-07-08T00:04:43;101535.81;;;21.53;100.00
8627;BME280;4351;51.422;6.794;2023-07-08T00:07:15;101530.31;;;21.53;100.00
8627;BME280;4351;51.422;6.794;2023-07-08T00:09:46;101525.09;;;21.59;100.00
8627;BME280;4351;51.422;6.794;2023-07-08T00:12:14;101530.63;;;21.50;100.00
8627;BME280;4351;51.422;6.794;2023-07-08T00:14:42;101524.78;;;21.73;100.00
8627;BME280;4351;51.422;6.794;2023-07-08T00:17:11;101523.94;;;21.62;100.00
8627;BME280;4351;51.422;6.794;2023-07-08T00:19:40;101525.09;;;21.59;100.00
8627;BME280;4351;51.422;6.794;2023-07-08T00:22:13;101519.63;;;21.59;100.00
8627;BME280;4351;51.422;6.794;2023-07-08T00:24:41;101524.94;;;21.61;100.00
8627;BME280;4351;51.422;6.794;2023-07-08T00:27:11;101513.28;;;21.49;100.00
8627;BME280;4351;51.422;6.794;2023-07-08T00:29:40;101516.75;;;21.51;100.00
8627;BME280;4351;51.422;6.794;2023-07-08T00:32:10;101518.22;;;21.45;100.00
8627;BME280;4351;51.422;6.794;2023-07-08T00:34:39;101518.47;;;21.62;100.00
8627;BME280;4351;51.422;6.794;2023-07-08T00:37:11;101517.63;;;21.52;100.00
8627;BME280;4351;51.422;6.794;2023-07-08T00:39:40;101515.16;;;21.48;100.00
8627;BME280;4351;51.422;6.794;2023-07-08T00:42:24;101504.03;;;21.60;100.00
8627;BME280;4351;51.422;6.794;2023-07-08T00:44:52;101514.41;;;21.66;100.00
8627;BME280;4351;51.422;6.794;2023-07-08T00:47:21;101518.13;;;21.75;100.00
8627;BME280;4351;51.422;6.794;2023-07-08T00:49:52;101516.72;;;21.71;100.00
8627;BME280;4351;51.422;6.794;2023-07-08T00:52:24;101510.34;;;21.70;100.00
8627;BME280;4351;51.422;6.794;2023-07-08T00:54:55;101514.25;;;21.78;100.00
8627;BME280;4351;51.422;6.794;2023-07-08T00:57:27;101510.66;;;21.67;100.00
8627;BME280;4351;51.422;6.794;2023-07-08T01:00:00;101503.59;;;21.65;100.00
8627;BME280;4351;51.422;6.794;2023-07-08T01:02:33;101504.56;;;21.74;100.00
8627;BME280;4351;51.422;6.794;2023-07-08T01:05:06;101506.59;;;21.62;100.00
8627;BME280;4351;51.422;6.794;2023-07-08T01:07:34;101502.44;;;21.57;100.00
8627;BME280;4351;51.422;6.794;2023-07-08T01:10:08;101503.59;;;21.65;100.00
8627;BME280;4351;51.422;6.794;2023-07-08T01:12:42;101496.22;;;21.65;100.00
8627;BME280;4351;51.422;6.794;2023-07-08T01:15:10;101499.53;;;21.59;100.00
8627;BME280;4351;51.422;6.794;2023-07-08T01:17:39;101505.19;;;21.57;100.00
8627;BME280;4351;51.422;6.794;2023-07-08T01:20:08;101503.41;;;21.86;100.00
8627;BME280;4351;51.422;6.794;2023-07-08T01:22:41;101502.00;;;21.62;100.00
8627;BME280;4351;51.422;6.794;2023-07-08T01:25:10;101507.31;;;21.74;100.00
8627;BME280;4351;51.422;6.794;2023-07-08T01:27:43;101503.41;;;21.86;100.00
8627;BME280;4351;51.422;6.794;2023-07-08T01:30:13;101506.59;;;21.71;100.00
8627;BME280;4351;51.422;6.794;2023-07-08T01:32:46;101506.09;;;21.38;100.00
8627;BME280;4351;51.422;6.794;2023-07-08T01:35:17;101503.50;;;21.36;100.00
8627;BME280;4351;51.422;6.794;2023-07-08T01:37:51;101508.25;;;21.24;100.00
8627;BME280;4351;51.422;6.794;2023-07-08T01:40:26;101502.63;;;21.16;100.00
8627;BME280;4351;51.422;6.794;2023-07-08T01:42:54;101499.19;;;21.14;100.00
8627;BME280;4351;51.422;6.794;2023-07-08T01:45:24;101495.72;;;21.12;100.00
8627;BME280;4351;51.422;6.794;2023-07-08T01:47:55;101497.75;;;21.10;100.00
8627;BME280;4351;51.422;6.794;2023-07-08T01:50:25;101504.53;;;21.06;100.00
8627;BME280;4351;51.422;6.794;2023-07-08T01:52:57;101498.59;;;21.00;100.00
8627;BME280;4351;51.422;6.794;2023-07-08T01:55:26;101494.28;;;21.08;100.00
8627;BME280;4351;51.422;6.794;2023-07-08T01:57:56;101506.56;;;21.04;100.00
8627;BME280;4351;51.422;6.794;2023-07-08T02:00:25;101494.13;;;20.99;100.00
8627;BME280;4351;51.422;6.794;2023-07-08T02:02:52;101496.25;;;20.96;100.00
8627;BME280;4351;51.422;6.794;2023-07-08T02:05:20;101492.78;;;20.94;100.00
8627;BME280;4351;51.422;6.794;2023-07-08T02:07:48;101493.09;;;20.90;100.00
8627;BME280;4351;51.422;6.794;2023-07-08T02:10:17;101494.97;;;20.90;100.00
8627;BME280;4351;51.422;6.794;2023-07-08T02:12:45;101487.72;;;20.89;100.00
8627;BME280;4351;51.422;6.794;2023-07-08T02:15:13;101494.50;;;20.85;100.00
8627;BME280;4351;51.422;6.794;2023-07-08T02:17:41;101489.34;;;20.82;100.00
8627;BME280;4351;51.422;6.794;2023-07-08T02:20:10;101494.38;;;20.76;100.00
8627;BME280;4351;51.422;6.794;2023-07-08T02:22:38;101487.28;;;20.74;100.00
8627;BME280;4351;51.422;6.794;2023-07-08T02:25:07;101487.59;;;20.71;100.00
8627;BME280;4351;51.422;6.794;2023-07-08T02:27:37;101483.97;;;20.70;100.00
8627;BME280;4351;51.422;6.794;2023-07-08T02:30:06;101485.28;;;20.66;100.00
8627;BME280;4351;51.422;6.794;2023-07-08T02:32:35;101488.00;;;20.66;100.00
8627;BME280;4351;51.422;6.794;2023-07-08T02:35:07;101481.81;;;20.64;100.00
8627;BME280;4351;51.422;6.794;2023-07-08T02:37:35;101479.50;;;20.59;100.00
8627;BME280;4351;51.422;6.794;2023-07-08T02:40:05;101479.34;;;20.51;100.00
8627;BME280;4351;51.422;6.794;2023-07-08T02:42:34;101480.19;;;20.51;100.00
8627;BME280;4351;51.422;6.794;2023-07-08T02:45:06;101476.00;;;20.47;100.00
8627;BME280;4351;51.422;6.794;2023-07-08T02:47:34;101482.50;;;20.46;100.00
8627;BME280;4351;51.422;6.794;2023-07-08T02:50:02;101479.03;;;20.44;100.00
8627;BME280;4351;51.422;6.794;2023-07-08T02:52:31;101485.66;;;20.41;100.00
8627;BME280;4351;51.422;6.794;2023-07-08T02:54:59;101476.13;;;20.36;100.00
8627;BME280;4351;51.422;6.794;2023-07-08T02:57:27;101482.28;;;20.28;100.00
8627;BME280;4351;51.422;6.794;2023-07-08T02:59:55;101477.97;;;20.25;100.00
8627;BME280;4351;51.422;6.794;2023-07-08T03:02:26;101475.50;;;20.22;100.00
8627;BME280;4351;51.422;6.794;2023-07-08T03:04:54;101480.53;;;20.17;100.00
8627;BME280;4351;51.422;6.794;2023-07-08T03:07:25;101479.53;;;20.18;100.00
8627;BME280;4351;51.422;6.794;2023-07-08T03:09:53;101477.78;;;20.17;100.00
8627;BME280;4351;51.422;6.794;2023-07-08T03:12:21;101485.75;;;20.20;100.00
8627;BME280;4351;51.422;6.794;2023-07-08T03:14:49;101479.41;;;20.19;100.00
8627;BME280;4351;51.422;6.794;2023-07-08T03:17:17;101481.97;;;20.21;100.00
8627;BME280;4351;51.422;6.794;2023-07-08T03:19:47;101470.44;;;20.17;100.00
8627;BME280;4351;51.422;6.794;2023-07-08T03:22:15;101476.06;;;20.16;100.00
8627;BME280;4351;51.422;6.794;2023-07-08T03:24:43;101466.97;;;20.15;100.00
8627;BME280;4351;51.422;6.794;2023-07-08T03:27:16;101469.72;;;20.15;100.00
8627;BME280;4351;51.422;6.794;2023-07-08T03:29:47;101469.00;;;20.13;100.00
8627;BME280;4351;51.422;6.794;2023-07-08T03:32:15;101457.69;;;20.06;100.00
8627;BME280;4351;51.422;6.794;2023-07-08T03:34:43;101469.38;;;20.08;100.00
8627;BME280;4351;51.422;6.794;2023-07-08T03:37:13;101464.31;;;20.04;100.00
8627;BME280;4351;51.422;6.794;2023-07-08T03:39:41;101472.81;;;20.01;100.00
8627;BME280;4351;51.422;6.794;2023-07-08T03:42:09;101474.94;;;19.97;100.00
8627;BME280;4351;51.422;6.794;2023-07-08T03:44:37;101470.19;;;19.99;100.00
8627;BME280;4351;51.422;6.794;2023-07-08T03:47:04;101468.75;;;19.95;100.00
8627;BME280;4351;51.422;6.794;2023-07-08T03:49:33;101476.22;;;19.93;100.00
8627;BME280;4351;51.422;6.794;2023-07-08T03:52:02;101472.22;;;19.97;100.00
8627;BME280;4351;51.422;6.794;2023-07-08T03:54:31;101464.28;;;19.94;100.00
8627;BME280;4351;51.422;6.794;2023-07-08T03:56:59;101470.94;;;20.01;100.00
8627;BME280;4351;51.422;6.794;2023-07-08T03:59:27;101477.38;;;20.12;100.00
8627;BME280;4351;51.422;6.794;2023-07-08T04:01:57;101479.88;;;20.03;100.00
8627;BME280;4351;51.422;6.794;2023-07-08T04:04:26;101479.59;;;20.06;100.00
8627;BME280;4351;51.422;6.794;2023-07-08T04:06:54;101482.19;;;20.08;100.00
8627;BME280;4351;51.422;6.794;2023-07-08T04:09:22;101490.81;;;20.03;100.00
8627;BME280;4351;51.422;6.794;2023-07-08T04:11:51;101490.25;;;19.99;100.00
8627;BME280;4351;51.422;6.794;2023-07-08T04:14:20;101489.09;;;20.02;100.00
8627;BME280;4351;51.422;6.794;2023-07-08T04:16:50;101491.69;;;20.04;100.00
8627;BME280;4351;51.422;6.794;2023-07-08T04:19:19;101478.88;;;20.04;100.00
8627;BME280;4351;51.422;6.794;2023-07-08T04:21:49;101489.09;;;20.02;100.00
8627;BME280;4351;51.422;6.794;2023-07-08T04:24:17;101494.56;;;20.02;100.00
8627;BME280;4351;51.422;6.794;2023-07-08T04:26:46;101495.16;;;20.06;100.00
8627;BME280;4351;51.422;6.794;2023-07-08T04:29:17;101495.88;;;19.98;100.00
8627;BME280;4351;51.422;6.794;2023-07-08T04:31:45;101497.41;;;19.91;100.00
8627;BME280;4351;51.422;6.794;2023-07-08T04:34:14;101496.81;;;19.87;100.00
8627;BME280;4351;51.422;6.794;2023-07-08T04:36:42;101511.09;;;19.91;100.00
8627;BME280;4351;51.422;6.794;2023-07-08T04:39:11;101507.47;;;19.90;100.00
8627;BME280;4351;51.422;6.794;2023-07-08T04:41:40;101505.19;;;19.85;100.00
8627;BME280;4351;51.422;6.794;2023-07-08T04:44:10;101508.91;;;19.84;100.00
8627;BME280;4351;51.422;6.794;2023-07-08T04:46:43;101510.66;;;19.85;100.00
8627;BME280;4351;51.422;6.794;2023-07-08T04:49:13;101507.03;;;19.85;100.00
8627;BME280;4351;51.422;6.794;2023-07-08T04:51:41;101499.09;;;19.82;100.00
8627;BME280;4351;51.422;6.794;2023-07-08T04:54:10;101491.19;;;19.88;100.00
8627;BME280;4351;51.422;6.794;2023-07-08T04:56:40;101488.94;;;19.94;100.00
8627;BME280;4351;51.422;6.794;2023-07-08T04:59:09;101493.53;;;19.93;100.00
8627;BME280;4351;51.422;6.794;2023-07-08T05:01:37;101502.88;;;19.91;100.00
8627;BME280;4351;51.422;6.794;2023-07-08T05:04:07;101495.41;;;19.93;100.00
8627;BME280;4351;51.422;6.794;2023-07-08T05:06:37;101497.41;;;19.91;100.00
8627;BME280;4351;51.422;6.794;2023-07-08T05:09:05;101497.41;;;19.91;100.00
8627;BME280;4351;51.422;6.794;2023-07-08T05:11:35;101498.13;;;19.93;100.00
8627;BME280;4351;51.422;6.794;2023-07-08T05:14:04;101498.28;;;19.91;100.00
8627;BME280;4351;51.422;6.794;2023-07-08T05:16:34;101491.06;;;19.90;100.00
8627;BME280;4351;51.422;6.794;2023-07-08T05:19:03;101492.22;;;19.87;100.00
8627;BME280;4351;51.422;6.794;2023-07-08T05:21:32;101492.34;;;19.86;100.00
8627;BME280;4351;51.422;6.794;2023-07-08T05:24:01;101492.47;;;19.84;100.00
8627;BME280;4351;51.422;6.794;2023-07-08T05:26:29;101490.72;;;19.83;100.00
8627;BME280;4351;51.422;6.794;2023-07-08T05:28:57;101488.00;;;19.83;100.00
8627;BME280;4351;51.422;6.794;2023-07-08T05:31:25;101490.47;;;19.86;100.00
8627;BME280;4351;51.422;6.794;2023-07-08T05:34:11;101488.59;;;19.87;100.00
8627;BME280;4351;51.422;6.794;2023-07-08T05:36:40;101488.47;;;19.88;100.00
8627;BME280;4351;51.422;6.794;2023-07-08T05:39:08;101491.19;;;19.88;100.00
8627;BME280;4351;51.422;6.794;2023-07-08T05:41:36;101484.72;;;19.90;100.00
8627;BME280;4351;51.422;6.794;2023-07-08T05:44:04;101483.03;;;19.98;100.00
8627;BME280;4351;51.422;6.794;2023-07-08T05:46:32;101477.28;;;20.02;100.00
8627;BME280;4351;51.422;6.794;2023-07-08T05:49:00;101485.81;;;20.08;100.00
8627;BME280;4351;51.422;6.794;2023-07-08T05:51:28;101483.28;;;20.17;100.00
8627;BME280;4351;51.422;6.794;2023-07-08T05:53:57;101484.00;;;20.19;100.00
8627;BME280;4351;51.422;6.794;2023-07-08T05:56:25;101481.97;;;20.21;100.00
8627;BME280;4351;51.422;6.794;2023-07-08T05:58:53;101485.63;;;20.31;100.00
8627;BME280;4351;51.422;6.794;2023-07-08T06:01:21;101486.78;;;20.39;100.00
8627;BME280;4351;51.422;6.794;2023-07-08T06:03:49;101480.06;;;20.53;100.00
8627;BME280;4351;51.422;6.794;2023-07-08T06:06:17;101482.81;;;20.63;100.00
8627;BME280;4351;51.422;6.794;2023-07-08T06:08:45;101480.34;;;20.70;100.00
8627;BME280;4351;51.422;6.794;2023-07-08T06:11:15;101477.34;;;20.73;100.00
8627;BME280;4351;51.422;6.794;2023-07-08T06:13:43;101475.75;;;20.80;100.00
8627;BME280;4351;51.422;6.794;2023-07-08T06:16:11;101471.59;;;20.86;100.00
8627;BME280;4351;51.422;6.794;2023-07-08T06:18:43;101472.16;;;20.89;100.00
8627;BME280;4351;51.422;6.794;2023-07-08T06:21:12;101478.09;;;20.95;100.00
8627;BME280;4351;51.422;6.794;2023-07-08T06:23:40;101476.66;;;21.00;100.00
8627;BME280;4351;51.422;6.794;2023-07-08T06:26:07;101480.69;;;21.06;100.00
8627;BME280;4351;51.422;6.794;2023-07-08T06:28:37;101480.13;;;21.12;100.00
8627;BME280;4351;51.422;6.794;2023-07-08T06:31:05;101490.63;;;21.17;100.00
8627;BME280;4351;51.422;6.794;2023-07-08T06:33:33;101492.81;;;21.43;100.00
8627;BME280;4351;51.422;6.794;2023-07-08T06:36:00;101501.28;;;21.50;100.00
8627;BME280;4351;51.422;6.794;2023-07-08T06:38:28;101496.25;;;21.45;100.00
8627;BME280;4351;51.422;6.794;2023-07-08T06:40:56;101490.91;;;21.44;100.00
8627;BME280;4351;51.422;6.794;2023-07-08T06:43:24;101487.56;;;21.50;100.00
8627;BME280;4351;51.422;6.794;2023-07-08T06:46:05;101483.78;;;21.61;100.00
8627;BME280;4351;51.422;6.794;2023-07-08T06:48:33;101481.72;;;21.73;100.00
8627;BME280;4351;51.422;6.794;2023-07-08T06:51:01;101485.19;;;21.85;100.00
8627;BME280;4351;51.422;6.794;2023-07-08T06:53:29;101478.75;;;22.04;100.00
8627;BME280;4351;51.422;6.794;2023-07-08T06:55:56;101485.78;;;22.17;100.00
8627;BME280;4351;51.422;6.794;2023-07-08T06:58:24;101486.13;;;22.32;100.00
8627;BME280;4351;51.422;6.794;2023-07-08T07:00:52;101486.56;;;22.56;100.00
8627;BME280;4351;51.422;6.794;2023-07-08T07:03:22;101481.22;;;22.54;100.00
8627;BME280;4351;51.422;6.794;2023-07-08T07:05:50;101480.59;;;22.60;100.00
8627;BME280;4351;51.422;6.794;2023-07-08T07:08:17;101482.38;;;22.80;100.00
8627;BME280;4351;51.422;6.794;2023-07-08T07:10:45;101478.91;;;22.96;100.00
8627;BME280;4351;51.422;6.794;2023-07-08T07:13:13;101479.31;;;23.01;100.00
8627;BME280;4351;51.422;6.794;2023-07-08T07:15:41;101469.56;;;22.89;100.00
8627;BME280;4351;51.422;6.794;2023-07-08T07:18:09;101464.75;;;22.91;100.00
8627;BME280;4351;51.422;6.794;2023-07-08T07:20:47;101463.75;;;22.92;100.00
8627;BME280;4351;51.422;6.794;2023-07-08T07:23:16;101473.72;;;22.93;100.00
8627;BME280;4351;51.422;6.794;2023-07-08T07:25:45;101469.72;;;23.05;100.00
8627;BME280;4351;51.422;6.794;2023-07-08T07:28:14;101478.03;;;23.14;100.00
8627;BME280;4351;51.422;6.794;2023-07-08T07:30:43;101465.44;;;23.29;100.00
8627;BME280;4351;51.422;6.794;2023-07-08T07:33:11;101469.91;;;23.30;100.00
8627;BME280;4351;51.422;6.794;2023-07-08T07:35:43;101473.13;;;23.26;100.00
8627;BME280;4351;51.422;6.794;2023-07-08T07:38:11;101481.94;;;23.29;100.00
8627;BME280;4351;51.422;6.794;2023-07-08T07:40:39;101482.78;;;23.30;100.00
8627;BME280;4351;51.422;6.794;2023-07-08T07:43:07;101484.38;;;23.33;100.00
8627;BME280;4351;51.422;6.794;2023-07-08T07:45:35;101483.19;;;23.53;100.00
8627;BME280;4351;51.422;6.794;2023-07-08T07:48:04;101489.72;;;23.52;100.00
8627;BME280;4351;51.422;6.794;2023-07-08T07:50:32;101481.88;;;23.66;100.00
8627;BME280;4351;51.422;6.794;2023-07-08T07:53:02;101486.50;;;23.92;100.00
8627;BME280;4351;51.422;6.794;2023-07-08T07:55:30;101472.72;;;23.92;100.00
8627;BME280;4351;51.422;6.794;2023-07-08T07:57:58;101479.28;;;23.91;100.00
8627;BME280;4351;51.422;6.794;2023-07-08T08:00:28;101477.28;;;24.10;100.00
8627;BME280;4351;51.422;6.794;2023-07-08T08:02:56;101471.53;;;24.30;100.00
8627;BME280;4351;51.422;6.794;2023-07-08T08:05:25;101480.72;;;24.55;100.00
8627;BME280;4351;51.422;6.794;2023-07-08T08:07:52;101474.31;;;24.38;100.00
8627;BME280;4351;51.422;6.794;2023-07-08T08:10:22;101465.94;;;24.73;100.00
8627;BME280;4351;51.422;6.794;2023-07-08T08:12:50;101458.03;;;24.87;100.00
8627;BME280;4351;51.422;6.794;2023-07-08T08:15:21;101446.97;;;25.45;100.00
8627;BME280;4351;51.422;6.794;2023-07-08T08:17:49;101437.84;;;25.36;100.00
8627;BME280;4351;51.422;6.794;2023-07-08T08:20:20;101418.66;;;25.52;100.00
8627;BME280;4351;51.422;6.794;2023-07-08T08:22:48;101423.97;;;25.70;100.00
8627;BME280;4351;51.422;6.794;2023-07-08T08:25:18;101420.34;;;25.61;100.00
8627;BME280;4351;51.422;6.794;2023-07-08T08:27:47;101410.28;;;25.85;100.00
8627;BME280;4351;51.422;6.794;2023-07-08T08:30:15;101403.59;;;25.79;100.00
8627;BME280;4351;51.422;6.794;2023-07-08T08:32:43;101419.44;;;25.86;100.00
8627;BME280;4351;51.422;6.794;2023-07-08T08:35:11;101387.09;;;26.26;100.00
8627;BME280;4351;51.422;6.794;2023-07-08T08:37:39;101404.66;;;26.42;100.00
8627;BME280;4351;51.422;6.794;2023-07-08T08:40:11;101390.88;;;26.57;100.00
8627;BME280;4351;51.422;6.794;2023-07-08T08:42:42;101422.69;;;26.29;100.00
8627;BME280;4351;51.422;6.794;2023-07-08T08:45:16;101408.75;;;26.46;100.00
8627;BME280;4351;51.422;6.794;2023-07-08T08:47:49;101409.88;;;26.60;100.00
8627;BME280;4351;51.422;6.794;2023-07-08T08:50:29;101406.66;;;26.95;100.00
8627;BME280;4351;51.422;6.794;2023-07-08T08:52:59;101392.94;;;27.02;100.00
8627;BME280;4351;51.422;6.794;2023-07-08T08:55:29;101411.88;;;26.90;100.00
8627;BME280;4351;51.422;6.794;2023-07-08T08:58:05;101403.75;;;27.12;100.00
8627;BME280;4351;51.422;6.794;2023-07-08T09:00:46;101418.09;;;27.16;100.00
8627;BME280;4351;51.422;6.794;2023-07-08T09:03:33;101428.53;;;27.05;100.00
8627;BME280;4351;51.422;6.794;2023-07-08T09:06:10;101428.91;;;27.02;100.00
8627;BME280;4351;51.422;6.794;2023-07-08T09:08:39;101453.19;;;26.77;100.00
8627;BME280;4351;51.422;6.794;2023-07-08T09:11:16;101453.41;;;26.67;100.00
8627;BME280;4351;51.422;6.794;2023-07-08T09:13:46;101465.16;;;26.37;100.00
8627;BME280;4351;51.422;6.794;2023-07-08T09:16:24;101460.59;;;26.76;100.00
8627;BME280;4351;51.422;6.794;2023-07-08T09:18:59;101433.94;;;26.98;100.00
8627;BME280;4351;51.422;6.794;2023-07-08T09:21:31;101398.75;;;27.31;100.00
8627;BME280;4351;51.422;6.794;2023-07-08T09:24:09;101401.38;;;27.09;100.00
8627;BME280;4351;51.422;6.794;2023-07-08T09:26:42;101417.44;;;27.29;100.00
8627;BME280;4351;51.422;6.794;2023-07-08T09:29:12;101443.59;;;27.26;100.00
8627;BME280;4351;51.422;6.794;2023-07-08T09:31:41;101434.91;;;27.29;100.00
8627;BME280;4351;51.422;6.794;2023-07-08T09:34:12;101409.25;;;27.51;100.00
8627;BME280;4351;51.422;6.794;2023-07-08T09:36:43;101427.97;;;27.34;100.00
8627;BME280;4351;51.422;6.794;2023-07-08T09:39:13;101414.28;;;27.47;100.00
8627;BME280;4351;51.422;6.794;2023-07-08T09:41:42;101399.41;;;27.63;100.00
8627;BME280;4351;51.422;6.794;2023-07-08T09:44:21;101413.16;;;27.72;100.00
8627;BME280;4351;51.422;6.794;2023-07-08T09:46:55;101400.44;;;27.62;100.00
8627;BME280;4351;51.422;6.794;2023-07-08T09:49:28;101412.38;;;27.63;100.00
8627;BME280;4351;51.422;6.794;2023-07-08T09:51:56;101420.06;;;27.76;100.00
8627;BME280;4351;51.422;6.794;2023-07-08T09:54:26;101384.09;;;27.98;100.00
8627;BME280;4351;51.422;6.794;2023-07-08T09:56:59;101374.63;;;28.07;100.00
8627;BME280;4351;51.422;6.794;2023-07-08T09:59:30;101397.94;;;27.98;100.00
8627;BME280;4351;51.422;6.794;2023-07-08T10:02:02;101401.09;;;28.10;100.00
8627;BME280;4351;51.422;6.794;2023-07-08T10:04:31;101385.84;;;28.21;100.00
8627;BME280;4351;51.422;6.794;2023-07-08T10:07:00;101410.09;;;28.34;100.00
8627;BME280;4351;51.422;6.794;2023-07-08T10:09:28;101388.28;;;28.46;100.00
8627;BME280;4351;51.422;6.794;2023-07-08T10:12:01;101404.47;;;28.42;100.00
8627;BME280;4351;51.422;6.794;2023-07-08T10:14:34;101402.69;;;28.56;100.00
8627;BME280;4351;51.422;6.794;2023-07-08T10:17:05;101410.53;;;28.53;100.00
8627;BME280;4351;51.422;6.794;2023-07-08T10:19:34;101387.47;;;28.52;100.00
8627;BME280;4351;51.422;6.794;2023-07-08T10:22:13;101411.31;;;28.46;100.00
8627;BME280;4351;51.422;6.794;2023-07-08T10:24:55;101394.56;;;28.40;100.00
8627;BME280;4351;51.422;6.794;2023-07-08T10:27:31;101373.94;;;28.42;100.00
8627;BME280;4351;51.422;6.794;2023-07-08T10:30:20;101398.25;;;28.62;100.00
8627;BME280;4351;51.422;6.794;2023-07-08T10:33:02;101370.28;;;28.86;100.00
8627;BME280;4351;51.422;6.794;2023-07-08T10:35:39;101374.97;;;28.85;100.00
8627;BME280;4351;51.422;6.794;2023-07-08T10:38:20;101365.78;;;29.07;100.00
8627;BME280;4351;51.422;6.794;2023-07-08T10:40:54;101386.13;;;28.92;100.00
8627;BME280;4351;51.422;6.794;2023-07-08T10:43:35;101391.59;;;28.78;100.00
8627;BME280;4351;51.422;6.794;2023-07-08T10:46:20;101386.06;;;28.85;100.00
8627;BME280;4351;51.422;6.794;2023-07-08T10:49:10;101385.28;;;28.91;100.00
8627;BME280;4351;51.422;6.794;2023-07-08T10:51:45;101402.94;;;28.62;100.00
8627;BME280;4351;51.422;6.794;2023-07-08T10:54:29;101401.00;;;28.84;100.00
8627;BME280;4351;51.422;6.794;2023-07-08T10:57:09;101388.34;;;29.03;100.00
8627;BME280;4351;51.422;6.794;2023-07-08T10:59:46;101344.53;;;29.27;100.00
8627;BME280;4351;51.422;6.794;2023-07-08T11:02:53;101338.88;;;29.49;100.00
8627;BME280;4351;51.422;6.794;2023-07-08T11:05:33;101311.44;;;29.75;100.00
8627;BME280;4351;51.422;6.794;2023-07-08T11:08:08;101319.88;;;29.46;100.00
8627;BME280;4351;51.422;6.794;2023-07-08T11:10:46;101347.78;;;29.38;100.00
8627;BME280;4351;51.422;6.794;2023-07-08T11:13:21;101344.78;;;29.68;100.00
8627;BME280;4351;51.422;6.794;2023-07-08T11:15:56;101259.28;;;29.84;100.00
8627;BME280;4351;51.422;6.794;2023-07-08T11:18:30;101290.59;;;29.51;100.00
8627;BME280;4351;51.422;6.794;2023-07-08T11:21:08;101293.28;;;29.86;100.00
8627;BME280;4351;51.422;6.794;2023-07-08T11:23:40;101308.66;;;29.75;100.00
8627;BME280;4351;51.422;6.794;2023-07-08T11:26:18;101326.66;;;29.79;100.00
8627;BME280;4351;51.422;6.794;2023-07-08T11:28:49;101352.06;;;29.76;100.00
8627;BME280;4351;51.422;6.794;2023-07-08T11:31:19;101353.25;;;30.16;100.00
8627;BME280;4351;51.422;6.794;2023-07-08T11:33:48;101292.09;;;30.16;100.00
8627;BME280;4351;51.422;6.794;2023-07-08T11:36:18;101318.34;;;30.00;100.00
8627;BME280;4351;51.422;6.794;2023-07-08T11:38:48;101329.88;;;29.83;100.00
8627;BME280;4351;51.422;6.794;2023-07-08T11:41:18;101315.38;;;29.94;100.00
8627;BME280;4351;51.422;6.794;2023-07-08T11:43:49;101346.94;;;29.80;100.00
8627;BME280;4351;51.422;6.794;2023-07-08T11:46:20;101354.31;;;30.01;100.00
8627;BME280;4351;51.422;6.794;2023-07-08T11:48:51;101305.59;;;30.33;100.00
8627;BME280;4351;51.422;6.794;2023-07-08T11:51:23;101345.22;;;30.55;100.00
8627;BME280;4351;51.422;6.794;2023-07-08T11:53:59;101289.78;;;30.47;100.00
8627;BME280;4351;51.422;6.794;2023-07-08T11:56:28;101289.13;;;30.45;100.00
8627;BME280;4351;51.422;6.794;2023-07-08T11:59:08;101272.41;;;30.79;100.00
8627;BME280;4351;51.422;6.794;2023-07-08T12:01:40;101294.06;;;30.49;100.00
8627;BME280;4351;51.422;6.794;2023-07-08T12:04:20;101315.44;;;30.35;100.00
8627;BME280;4351;51.422;6.794;2023-07-08T12:07:01;101292.56;;;30.54;100.00
8627;BME280;4351;51.422;6.794;2023-07-08T12:09:36;101282.06;;;30.69;100.00
8627;BME280;4351;51.422;6.794;2023-07-08T12:12:09;101305.16;;;30.63;100.00
8627;BME280;4351;51.422;6.794;2023-07-08T12:14:41;101295.78;;;30.91;100.00
8627;BME280;4351;51.422;6.794;2023-07-08T12:17:11;101289.72;;;31.15;100.00
8627;BME280;4351;51.422;6.794;2023-07-08T12:19:41;101310.75;;;30.90;100.00
8627;BME280;4351;51.422;6.794;2023-07-08T12:22:12;101319.06;;;30.83;100.00
8627;BME280;4351;51.422;6.794;2023-07-08T12:24:40;101290.19;;;30.91;100.00
8627;BME280;4351;51.422;6.794;2023-07-08T12:27:09;101269.53;;;31.26;100.00
8627;BME280;4351;51.422;6.794;2023-07-08T12:29:40;101259.22;;;31.27;100.00
8627;BME280;4351;51.422;6.794;2023-07-08T12:32:11;101283.75;;;31.04;100.00
8627;BME280;4351;51.422;6.794;2023-07-08T12:34:40;101237.16;;;31.25;100.00
8627;BME280;4351;51.422;6.794;2023-07-08T12:37:12;101247.69;;;31.23;100.00
8627;BME280;4351;51.422;6.794;2023-07-08T12:39:41;101233.56;;;31.11;100.00
8627;BME280;4351;51.422;6.794;2023-07-08T12:42:11;101197.91;;;31.33;100.00
8627;BME280;4351;51.422;6.794;2023-07-08T12:44:39;101205.84;;;31.37;100.00
8627;BME280;4351;51.422;6.794;2023-07-08T12:47:10;101227.38;;;31.62;100.00
8627;BME280;4351;51.422;6.794;2023-07-08T12:49:39;101237.75;;;31.41;100.00
8627;BME280;4351;51.422;6.794;2023-07-08T12:52:19;101251.91;;;31.39;100.00
8627;BME280;4351;51.422;6.794;2023-07-08T12:54:47;101254.00;;;31.44;100.00
8627;BME280;4351;51.422;6.794;2023-07-08T12:57:16;101235.03;;;31.99;100.00
8627;BME280;4351;51.422;6.794;2023-07-08T12:59:45;101226.03;;;31.71;100.00
8627;BME280;4351;51.422;6.794;2023-07-08T13:02:15;101238.38;;;31.82;100.00
8627;BME280;4351;51.422;6.794;2023-07-08T13:04:45;101246.72;;;31.57;100.00
8627;BME280;4351;51.422;6.794;2023-07-08T13:07:25;101198.13;;;32.04;100.00
8627;BME280;4351;51.422;6.794;2023-07-08T13:09:57;101200.84;;;32.17;100.00
8627;BME280;4351;51.422;6.794;2023-07-08T13:12:26;101186.13;;;32.03;100.00
8627;BME280;4351;51.422;6.794;2023-07-08T13:14:55;101210.03;;;31.92;100.00
8627;BME280;4351;51.422;6.794;2023-07-08T13:17:26;101234.31;;;31.85;100.00
8627;BME280;4351;51.422;6.794;2023-07-08T13:19:54;101218.44;;;31.85;100.00